Time;durP1;ratioP1;P1;durP2;ratioP2;P2;SDS_P1;SDS_P2;PMS_P1;PMS_P2;Temp;Humidity;BMP_temperature;BMP_pressure;BME280_temperature;BME280_humidity;BME280_pressure;Samples;Min_cycle;Max_cycle;Signal;HPM_P1;HPM_P2
2021/10/10 00:01:07;;;;;;;1.25;1.00;;;;;18.20;100704.00;;;;4860396;29;20502;-82
2021/10/10 00:03:37;;;;;;;3.05;1.08;;;;;18.20;100712.00;;;;4859892;29;20084;-83
2021/10/10 00:06:06;;;;;;;4.00;0.70;;;;;18.20;100707.00;;;;4860178;29;20748;-84
2021/10/10 00:08:36;;;;;;;3.70;0.80;;;;;18.20;100704.00;;;;4859838;29;20060;-81
2021/10/10 00:11:05;;;;;;;2.20;1.05;;;;;18.20;100722.00;;;;4860381;29;20402;-82
2021/10/10 00:13:34;;;;;;;3.03;0.85;;;;;18.20;100705.00;;;;4860488;29;20628;-83
2021/10/10 00:16:04;;;;;;;2.20;0.80;;;;;18.20;100716.00;;;;4858982;29;20057;-81
2021/10/10 00:18:36;;;;;;;4.30;0.90;;;;;18.20;100713.00;;;;4861004;29;20056;-82
2021/10/10 00:21:06;;;;;;;2.58;1.00;;;;;18.20;100736.00;;;;4860300;29;20080;-83
2021/10/10 00:23:35;;;;;;;6.60;1.30;;;;;18.20;100733.00;;;;4869943;29;20034;-81
2021/10/10 00:26:05;;;;;;;3.00;0.80;;;;;18.20;100722.00;;;;4860182;29;20061;-82
2021/10/10 00:28:34;;;;;;;4.75;1.35;;;;;18.20;100725.00;;;;4858123;29;20072;-83
2021/10/10 00:31:04;;;;;;;3.08;1.10;;;;;18.20;100712.00;;;;4859906;29;20061;-80
2021/10/10 00:33:33;;;;;;;1.98;0.93;;;;;18.20;100702.00;;;;4858080;29;20140;-84
2021/10/10 00:36:03;;;;;;;5.18;1.05;;;;;18.20;100729.00;;;;4859368;29;20117;-81
2021/10/10 00:38:32;;;;;;;0.90;0.70;;;;;18.20;100738.00;;;;4859644;29;20053;-84
2021/10/10 00:41:01;;;;;;;1.55;0.93;;;;;18.20;100740.00;;;;4859831;29;20132;-83
2021/10/10 00:43:31;;;;;;;5.32;1.73;;;;;18.20;100734.00;;;;4859698;29;20077;-81
2021/10/10 00:46:00;;;;;;;6.25;0.70;;;;;18.10;100738.00;;;;4858388;29;20049;-83
2021/10/10 00:48:30;;;;;;;3.78;1.10;;;;;18.10;100743.00;;;;4856464;29;20057;-82
2021/10/10 00:51:00;;;;;;;2.88;0.88;;;;;18.10;100733.00;;;;4857166;29;20108;-83
2021/10/10 00:53:32;;;;;;;7.35;0.80;;;;;18.00;100745.00;;;;4856659;29;20053;-81
2021/10/10 00:56:03;;;;;;;2.00;0.90;;;;;18.00;100743.00;;;;4857125;29;20113;-82
2021/10/10 00:58:36;;;;;;;3.95;1.10;;;;;18.00;100745.00;;;;4855284;29;20430;-81
2021/10/10 01:01:05;;;;;;;2.38;1.00;;;;;18.00;100754.00;;;;4855942;29;20049;-81
2021/10/10 01:03:35;;;;;;;2.72;1.00;;;;;17.90;100748.00;;;;4854708;29;20049;-80
2021/10/10 01:06:05;;;;;;;2.20;0.90;;;;;17.90;100756.00;;;;4856540;29;20062;-82
2021/10/10 01:08:34;;;;;;;1.60;0.80;;;;;17.90;100745.00;;;;4856744;29;20038;-80
2021/10/10 01:11:04;;;;;;;1.98;1.13;;;;;17.90;100761.00;;;;4856177;29;20188;-83
2021/10/10 01:13:33;;;;;;;4.88;0.90;;;;;17.80;100778.00;;;;4856413;29;20072;-81
2021/10/10 01:16:03;;;;;;;4.32;1.10;;;;;17.80;100759.00;;;;4855119;29;20061;-81
2021/10/10 01:18:32;;;;;;;4.25;1.20;;;;;17.70;100753.00;;;;4855708;29;20501;-82
2021/10/10 01:21:02;;;;;;;1.88;0.80;;;;;17.70;100770.00;;;;4856237;29;20149;-81
2021/10/10 01:23:32;;;;;;;5.40;1.20;;;;;17.70;100766.00;;;;4856375;29;20057;-81
2021/10/10 01:26:01;;;;;;;2.70;0.85;;;;;17.70;100774.00;;;;4855135;29;20049;-83
2021/10/10 01:28:31;;;;;;;2.47;0.98;;;;;17.60;100779.00;;;;4855964;29;20456;-81
2021/10/10 01:31:00;;;;;;;3.35;1.30;;;;;17.60;100772.00;;;;4855593;29;20057;-82
2021/10/10 01:33:30;;;;;;;2.03;1.00;;;;;17.60;100774.00;;;;4855249;29;20122;-81
2021/10/10 01:35:59;;;;;;;7.13;1.48;;;;;17.60;100789.00;;;;4856244;29;20053;-82
2021/10/10 01:38:29;;;;;;;1.92;0.90;;;;;17.50;100801.00;;;;4855383;29;20054;-84
2021/10/10 01:40:58;;;;;;;5.68;1.15;;;;;17.50;100785.00;;;;4854578;29;20518;-81
2021/10/10 01:43:28;;;;;;;3.20;1.08;;;;;17.50;100770.00;;;;4856329;29;20525;-82
2021/10/10 01:45:58;;;;;;;2.42;1.30;;;;;17.50;100799.00;;;;4855973;29;20099;-82
2021/10/10 01:48:28;;;;;;;3.72;1.20;;;;;17.50;100804.00;;;;4855688;29;20057;-82
2021/10/10 01:50:58;;;;;;;4.30;1.05;;;;;17.40;100805.00;;;;4855661;29;20061;-83
2021/10/10 01:53:27;;;;;;;5.25;1.10;;;;;17.40;100791.00;;;;4855677;29;20102;-81
2021/10/10 01:55:57;;;;;;;4.55;1.23;;;;;17.40;100792.00;;;;4855405;29;20061;-81
2021/10/10 01:58:26;;;;;;;5.07;1.30;;;;;17.40;100792.00;;;;4853387;29;20081;-81
2021/10/10 02:00:57;;;;;;;6.60;1.10;;;;;17.40;100786.00;;;;4853963;29;20478;-81
2021/10/10 02:03:28;;;;;;;4.85;1.10;;;;;17.40;100797.00;;;;4855847;29;20053;-81
2021/10/10 02:05:57;;;;;;;3.50;1.10;;;;;17.40;100798.00;;;;4855520;29;20056;-79
2021/10/10 02:08:27;;;;;;;5.80;1.10;;;;;17.40;100801.00;;;;4855458;29;20052;-82
2021/10/10 02:10:57;;;;;;;3.70;1.00;;;;;17.40;100778.00;;;;4855876;29;20041;-81
2021/10/10 02:13:28;;;;;;;4.07;1.20;;;;;17.30;100783.00;;;;4855596;29;20045;-82
2021/10/10 02:15:57;;;;;;;4.63;1.50;;;;;17.30;100793.00;;;;4855266;29;20401;-81
2021/10/10 02:18:27;;;;;;;2.92;0.80;;;;;17.30;100781.00;;;;4853080;29;20057;-80
2021/10/10 02:20:56;;;;;;;3.50;1.08;;;;;17.30;100782.00;;;;4855276;29;20056;-83
2021/10/10 02:23:26;;;;;;;5.05;1.05;;;;;17.30;100775.00;;;;4854986;29;20171;-82
2021/10/10 02:25:56;;;;;;;4.65;1.02;;;;;17.30;100776.00;;;;4854994;29;20057;-81
2021/10/10 02:28:25;;;;;;;5.18;1.27;;;;;17.30;100789.00;;;;4854793;29;20068;-81
2021/10/10 02:30:54;;;;;;;4.50;1.10;;;;;17.30;100782.00;;;;4855285;29;20588;-79
2021/10/10 02:33:24;;;;;;;3.03;0.98;;;;;17.30;100769.00;;;;4854802;29;20609;-79
2021/10/10 02:35:53;;;;;;;6.57;1.20;;;;;17.30;100776.00;;;;4855304;29;20148;-80
2021/10/10 02:38:23;;;;;;;5.30;1.20;;;;;17.30;100759.00;;;;4854876;29;20053;-81
2021/10/10 02:40:52;;;;;;;2.40;1.25;;;;;17.30;100782.00;;;;4855102;29;20053;-81
2021/10/10 02:43:23;;;;;;;6.77;0.90;;;;;17.30;100760.00;;;;4853565;29;20144;-82
2021/10/10 02:45:54;;;;;;;3.30;1.10;;;;;17.30;100749.00;;;;4854859;29;20305;-83
2021/10/10 02:48:24;;;;;;;2.60;0.90;;;;;17.30;100754.00;;;;4853652;29;20164;-80
2021/10/10 02:50:54;;;;;;;3.22;1.10;;;;;17.30;100746.00;;;;4854663;29;20061;-80
2021/10/10 02:53:23;;;;;;;3.20;1.20;;;;;17.30;100741.00;;;;4854442;29;20073;-83
2021/10/10 02:55:52;;;;;;;2.70;1.02;;;;;17.30;100739.00;;;;4854723;29;20064;-84
2021/10/10 02:58:22;;;;;;;2.40;0.80;;;;;17.30;100716.00;;;;4853443;29;20053;-82
2021/10/10 03:00:51;;;;;;;1.88;0.70;;;;;17.30;100734.00;;;;4871874;29;20052;-81
2021/10/10 03:03:21;;;;;;;3.30;1.00;;;;;17.30;100717.00;;;;4862363;29;20053;-82
2021/10/10 03:05:51;;;;;;;4.78;1.10;;;;;17.30;100718.00;;;;4854442;29;20056;-82
2021/10/10 03:08:20;;;;;;;3.33;0.90;;;;;17.30;100721.00;;;;4855012;29;20067;-81
2021/10/10 03:10:50;;;;;;;2.42;0.70;;;;;17.30;100730.00;;;;4854151;29;20529;-81
2021/10/10 03:13:19;;;;;;;5.03;1.00;;;;;17.30;100728.00;;;;4853940;29;20057;-81
2021/10/10 03:15:49;;;;;;;1.77;1.00;;;;;17.30;100730.00;;;;4854258;29;20505;-81
2021/10/10 03:18:18;;;;;;;2.42;1.00;;;;;17.40;100731.00;;;;4852988;29;20057;-80
2021/10/10 03:20:48;;;;;;;1.98;0.90;;;;;17.40;100734.00;;;;4853933;29;20608;-80
2021/10/10 03:23:17;;;;;;;3.50;0.93;;;;;17.40;100727.00;;;;4854232;29;20057;-79
2021/10/10 03:25:47;;;;;;;2.30;0.70;;;;;17.40;100729.00;;;;4853638;29;20046;-81
2021/10/10 03:28:17;;;;;;;2.30;0.82;;;;;17.40;100725.00;;;;4854534;29;20156;-82
2021/10/10 03:30:46;;;;;;;3.28;0.82;;;;;17.40;100749.00;;;;4852461;29;20153;-83
2021/10/10 03:33:15;;;;;;;3.25;1.00;;;;;17.30;100742.00;;;;4853956;29;20064;-81
2021/10/10 03:35:45;;;;;;;2.78;1.00;;;;;17.30;100726.00;;;;4854254;29;20472;-79
2021/10/10 03:38:14;;;;;;;3.03;0.75;;;;;17.30;100727.00;;;;4852194;29;20057;-83
2021/10/10 03:40:44;;;;;;;1.88;0.73;;;;;17.30;100729.00;;;;4853650;29;20045;-81
2021/10/10 03:43:13;;;;;;;4.75;1.20;;;;;17.30;100735.00;;;;4854290;29;20037;-82
2021/10/10 03:45:42;;;;;;;2.60;0.70;;;;;17.30;100727.00;;;;4854116;29;20053;-80
2021/10/10 03:48:12;;;;;;;2.70;0.70;;;;;17.20;100718.00;;;;4852416;29;20058;-81
2021/10/10 03:50:41;;;;;;;4.70;0.80;;;;;17.10;100722.00;;;;4853556;29;20046;-82
2021/10/10 03:53:10;;;;;;;2.20;0.68;;;;;17.10;100729.00;;;;4852928;29;20050;-81
2021/10/10 03:55:40;;;;;;;2.22;0.90;;;;;17.10;100728.00;;;;4854856;29;20171;-80
2021/10/10 03:58:14;;;;;;;4.32;1.00;;;;;17.10;100740.00;;;;4853724;29;20133;-80
2021/10/10 04:00:43;;;;;;;1.80;0.80;;;;;17.00;100737.00;;;;4853956;29;20459;-80
2021/10/10 04:03:15;;;;;;;5.95;0.90;;;;;17.00;100734.00;;;;4854149;29;20517;-80
2021/10/10 04:05:46;;;;;;;3.28;1.20;;;;;17.00;100734.00;;;;4854159;29;20055;-80
2021/10/10 04:08:16;;;;;;;1.52;0.80;;;;;16.90;100729.00;;;;4854144;29;20533;-82
2021/10/10 04:10:45;;;;;;;3.85;1.05;;;;;16.90;100726.00;;;;4852822;29;20057;-84
2021/10/10 04:13:15;;;;;;;1.52;0.77;;;;;16.90;100725.00;;;;4853841;29;20050;-83
2021/10/10 04:15:45;;;;;;;3.58;1.13;;;;;16.90;100734.00;;;;4853137;29;20049;-82
2021/10/10 04:18:14;;;;;;;4.63;1.10;;;;;16.80;100735.00;;;;4852647;29;20061;-81
2021/10/10 04:20:43;;;;;;;3.10;1.08;;;;;16.80;100724.00;;;;4853966;29;20474;-82
2021/10/10 04:23:13;;;;;;;5.10;0.90;;;;;16.80;100717.00;;;;4856177;29;20057;-81
2021/10/10 04:25:42;;;;;;;2.85;0.82;;;;;16.80;100719.00;;;;4857014;29;20539;-81
2021/10/10 04:28:12;;;;;;;2.30;0.80;;;;;16.70;100712.00;;;;4856363;29;20049;-79
2021/10/10 04:30:41;;;;;;;4.80;0.80;;;;;16.60;100716.00;;;;4840417;29;20410;-82
2021/10/10 04:33:10;;;;;;;2.53;0.98;;;;;16.60;100704.00;;;;4856632;29;20106;-81
2021/10/10 04:35:40;;;;;;;4.57;0.95;;;;;16.50;100710.00;;;;4856727;29;20061;-80
2021/10/10 04:38:10;;;;;;;3.65;1.48;;;;;16.50;100702.00;;;;4856595;29;20061;-81
2021/10/10 04:40:40;;;;;;;5.25;1.60;;;;;16.60;100696.00;;;;4856435;29;20076;-84
2021/10/10 04:43:09;;;;;;;5.28;1.08;;;;;16.60;100704.00;;;;4855259;29;20060;-81
2021/10/10 04:45:39;;;;;;;4.43;1.05;;;;;16.70;100699.00;;;;4857078;29;20097;-82
2021/10/10 04:48:09;;;;;;;5.57;1.08;;;;;16.70;100688.00;;;;4857454;29;20050;-81
2021/10/10 04:50:38;;;;;;;5.05;1.00;;;;;16.60;100693.00;;;;4856544;29;20061;-83
2021/10/10 04:53:08;;;;;;;3.45;1.00;;;;;16.50;100676.00;;;;4856496;29;20049;-82
2021/10/10 04:55:37;;;;;;;1.00;0.60;;;;;16.60;100683.00;;;;4856693;29;20056;-82
2021/10/10 04:58:06;;;;;;;2.42;0.60;;;;;16.50;100687.00;;;;4855309;29;20084;-80
2021/10/10 05:00:36;;;;;;;1.92;0.82;;;;;16.40;100681.00;;;;4856755;29;20060;-82
2021/10/10 05:03:05;;;;;;;5.50;1.00;;;;;16.30;100665.00;;;;4855460;29;20050;-82
2021/10/10 05:05:36;;;;;;;2.80;0.70;;;;;16.40;100684.00;;;;4856076;29;20102;-80
2021/10/10 05:08:05;;;;;;;4.47;0.85;;;;;16.30;100669.00;;;;4856114;29;20057;-81
2021/10/10 05:10:36;;;;;;;4.70;1.00;;;;;16.40;100683.00;;;;4856378;29;20048;-81
2021/10/10 05:13:05;;;;;;;4.75;0.70;;;;;16.30;100680.00;;;;4856636;29;20052;-79
2021/10/10 05:15:35;;;;;;;4.32;0.73;;;;;16.40;100663.00;;;;4856631;29;20041;-82
2021/10/10 05:18:05;;;;;;;2.75;0.70;;;;;16.40;100686.00;;;;4854645;29;20507;-81
2021/10/10 05:20:35;;;;;;;8.23;0.80;;;;;16.50;100680.00;;;;4856779;29;20057;-83
2021/10/10 05:23:04;;;;;;;2.72;0.75;;;;;16.50;100669.00;;;;4856193;29;20068;-82
2021/10/10 05:25:34;;;;;;;3.58;0.90;;;;;16.40;100691.00;;;;4855748;29;20546;-81
2021/10/10 05:28:04;;;;;;;1.60;0.63;;;;;16.40;100669.00;;;;4855949;29;20058;-80
2021/10/10 05:30:34;;;;;;;3.35;0.80;;;;;16.30;100664.00;;;;4855984;29;20064;-82
2021/10/10 05:33:04;;;;;;;2.45;0.63;;;;;16.30;100667.00;;;;4856090;29;20054;-81
2021/10/10 05:35:34;;;;;;;3.28;0.73;;;;;16.30;100656.00;;;;4856186;29;20042;-80
2021/10/10 05:38:03;;;;;;;3.55;0.68;;;;;16.30;100665.00;;;;4856563;29;20059;-80
2021/10/10 05:40:33;;;;;;;2.97;0.65;;;;;16.20;100656.00;;;;4868172;29;20060;-82
2021/10/10 05:43:03;;;;;;;0.85;0.52;;;;;16.20;100644.00;;;;4870379;29;20049;-79
2021/10/10 05:45:33;;;;;;;3.20;0.70;;;;;16.20;100641.00;;;;4856971;29;20080;-79
2021/10/10 05:48:03;;;;;;;2.45;0.63;;;;;16.20;100646.00;;;;4856268;29;20514;-83
2021/10/10 05:50:34;;;;;;;2.58;0.60;;;;;16.20;100650.00;;;;4856535;29;20520;-81
2021/10/10 05:53:08;;;;;;;2.95;0.80;;;;;16.30;100626.00;;;;4856196;29;20523;-83
2021/10/10 05:55:38;;;;;;;1.50;0.55;;;;;16.30;100631.00;;;;4857152;29;20053;-80
2021/10/10 05:58:15;;;;;;;2.80;0.70;;;;;16.30;100631.00;;;;4856244;29;20056;-82
2021/10/10 06:00:45;;;;;;;2.47;0.70;;;;;16.20;100609.00;;;;4856699;29;20406;-79
2021/10/10 06:03:16;;;;;;;0.88;0.60;;;;;16.30;100625.00;;;;4854939;29;20425;-83
2021/10/10 06:05:45;;;;;;;2.90;0.80;;;;;16.50;100632.00;;;;4856127;29;20046;-80
2021/10/10 06:08:15;;;;;;;2.80;0.82;;;;;16.50;100632.00;;;;4855501;29;20052;-80
2021/10/10 06:10:47;;;;;;;2.80;0.70;;;;;16.40;100627.00;;;;4855699;29;20082;-81
2021/10/10 06:13:40;;;;;;;4.30;0.90;;;;;16.40;100627.00;;;;4855722;29;20053;-82
2021/10/10 06:16:10;;;;;;;3.15;0.80;;;;;16.40;100635.00;;;;4855115;29;20080;-80
2021/10/10 06:18:40;;;;;;;2.08;0.70;;;;;16.50;100624.00;;;;4855591;29;20122;-81
2021/10/10 06:21:09;;;;;;;4.68;0.80;;;;;16.50;100627.00;;;;4856585;29;20420;-83
2021/10/10 06:23:39;;;;;;;2.50;0.70;;;;;16.50;100614.00;;;;4854374;29;20064;-84
2021/10/10 06:26:08;;;;;;;3.03;1.00;;;;;16.60;100609.00;;;;4854173;29;20072;-80
2021/10/10 06:28:38;;;;;;;1.35;0.57;;;;;16.70;100594.00;;;;4853989;29;20517;-80
2021/10/10 06:31:08;;;;;;;2.78;0.75;;;;;16.80;100598.00;;;;4853406;29;20061;-81
2021/10/10 06:33:38;;;;;;;8.13;0.90;;;;;16.60;100592.00;;;;4856429;29;20082;-80
2021/10/10 06:36:07;;;;;;;4.20;0.90;;;;;16.70;100600.00;;;;4856404;29;20060;-82
2021/10/10 06:38:37;;;;;;;2.88;0.80;;;;;16.60;100587.00;;;;4856070;29;20152;-81
2021/10/10 06:41:09;;;;;;;1.75;0.80;;;;;16.50;100598.00;;;;4855537;29;20468;-82
2021/10/10 06:43:39;;;;;;;4.93;0.90;;;;;16.50;100592.00;;;;4854214;29;20089;-82
2021/10/10 06:46:09;;;;;;;2.67;0.60;;;;;16.60;100593.00;;;;4855161;29;20049;-81
2021/10/10 06:48:38;;;;;;;2.47;0.73;;;;;16.50;100595.00;;;;4855456;29;20077;-83
2021/10/10 06:51:09;;;;;;;5.13;1.13;;;;;16.60;100587.00;;;;4855349;29;20533;-83
2021/10/10 06:53:38;;;;;;;1.95;0.90;;;;;16.60;100594.00;;;;4855294;29;20057;-81
2021/10/10 06:56:11;;;;;;;1.92;0.85;;;;;16.70;100602.00;;;;4854849;29;20102;-81
2021/10/10 06:58:41;;;;;;;5.03;0.98;;;;;16.80;100609.00;;;;4855522;29;20053;-82
2021/10/10 07:01:14;;;;;;;1.80;0.80;;;;;16.80;100606.00;;;;4854472;29;20064;-81
2021/10/10 07:03:45;;;;;;;4.07;1.10;;;;;16.80;100619.00;;;;4855369;29;20046;-83
2021/10/10 07:06:15;;;;;;;5.55;1.15;;;;;16.80;100612.00;;;;4854258;29;20059;-83
2021/10/10 07:08:47;;;;;;;2.38;0.90;;;;;16.80;100626.00;;;;4854875;29;20045;-81
2021/10/10 07:11:17;;;;;;;2.85;0.98;;;;;16.80;100616.00;;;;4855636;29;20053;-80
2021/10/10 07:13:47;;;;;;;3.55;1.00;;;;;16.80;100621.00;;;;4853399;29;20057;-81
2021/10/10 07:16:17;;;;;;;4.35;1.20;;;;;16.80;100621.00;;;;4855770;29;20560;-80
2021/10/10 07:18:47;;;;;;;6.53;1.77;;;;;16.80;100607.00;;;;4855331;29;20057;-81
2021/10/10 07:26:40;;;;;;;4.72;1.20;;;;;16.70;100620.00;;;;4854740;29;20530;-82
2021/10/10 07:29:10;;;;;;;4.85;1.27;;;;;16.60;100608.00;;;;4854821;29;20065;-80
2021/10/10 07:31:40;;;;;;;3.65;1.42;;;;;16.60;100622.00;;;;4855263;29;20132;-82
2021/10/10 07:34:10;;;;;;;3.30;1.40;;;;;16.50;100628.00;;;;4853898;29;20085;-83
2021/10/10 07:36:39;;;;;;;6.32;1.52;;;;;16.40;100618.00;;;;4853390;29;20053;-79
2021/10/10 07:39:09;;;;;;;6.00;1.33;;;;;16.40;100620.00;;;;4854533;29;20501;-84
2021/10/10 07:41:40;;;;;;;3.92;1.30;;;;;16.30;100632.00;;;;4853873;29;20513;-81
2021/10/10 07:44:12;;;;;;;3.97;1.73;;;;;16.20;100627.00;;;;4853145;29;20073;-82
2021/10/10 07:46:55;;;;;;;6.93;1.63;;;;;16.20;100622.00;;;;4854576;29;20414;-82
2021/10/10 07:49:25;;;;;;;4.25;1.50;;;;;16.00;100634.00;;;;4854792;29;20366;-81
2021/10/10 07:51:54;;;;;;;6.07;1.65;;;;;16.00;100641.00;;;;4854643;29;20042;-81
2021/10/10 07:54:28;;;;;;;5.43;1.65;;;;;16.10;100641.00;;;;4854810;29;20098;-80
2021/10/10 07:57:00;;;;;;;5.40;1.52;;;;;16.20;100650.00;;;;4856495;29;20045;-83
2021/10/10 07:59:30;;;;;;;6.75;1.55;;;;;16.30;100661.00;;;;4857281;29;20442;-81
2021/10/10 08:01:59;;;;;;;5.22;1.83;;;;;16.30;100674.00;;;;4858584;29;20509;-80
2021/10/10 08:04:31;;;;;;;6.97;1.85;;;;;16.20;100687.00;;;;4858682;29;20054;-80
2021/10/10 08:07:01;;;;;;;5.75;1.73;;;;;16.20;100670.00;;;;4858381;29;20057;-84
2021/10/10 08:09:31;;;;;;;5.80;2.00;;;;;16.20;100661.00;;;;4857590;29;20049;-82
2021/10/10 08:12:04;;;;;;;7.88;1.83;;;;;16.20;100657.00;;;;4856560;29;20053;-84
2021/10/10 08:14:36;;;;;;;7.22;1.85;;;;;16.30;100657.00;;;;4858047;29;20404;-82
2021/10/10 08:17:06;;;;;;;5.55;1.83;;;;;16.20;100673.00;;;;4856001;29;20068;-81
2021/10/10 08:19:36;;;;;;;5.00;1.88;;;;;16.20;100688.00;;;;4858177;29;20061;-79
2021/10/10 08:22:05;;;;;;;4.68;1.73;;;;;16.10;100694.00;;;;4857837;29;20038;-81
2021/10/10 08:24:35;;;;;;;13.57;3.38;;;;;16.20;100710.00;;;;4872207;29;20797;-81
2021/10/10 08:27:04;;;;;;;8.15;2.28;;;;;16.20;100714.00;;;;4868714;29;20060;-80
2021/10/10 08:29:34;;;;;;;9.82;2.35;;;;;16.30;100719.00;;;;4857955;29;20144;-81
2021/10/10 08:32:03;;;;;;;6.75;2.15;;;;;16.30;100730.00;;;;4857918;29;20050;-82
2021/10/10 08:34:36;;;;;;;7.22;1.80;;;;;16.30;100732.00;;;;4858273;29;20053;-81
2021/10/10 08:37:06;;;;;;;6.75;1.83;;;;;16.30;100728.00;;;;4857066;29;20070;-83
2021/10/10 08:39:35;;;;;;;7.30;2.05;;;;;16.30;100722.00;;;;4857470;29;20053;-82
2021/10/10 08:42:11;;;;;;;5.30;2.13;;;;;16.30;100729.00;;;;4855920;29;20050;-82
2021/10/10 08:44:45;;;;;;;5.68;2.40;;;;;16.40;100732.00;;;;4855901;29;20127;-82
2021/10/10 08:47:17;;;;;;;7.45;2.38;;;;;16.30;100726.00;;;;4856969;29;20069;-85
2021/10/10 08:49:48;;;;;;;6.45;2.58;;;;;16.40;100732.00;;;;4856714;29;20078;-83
2021/10/10 08:52:23;;;;;;;7.63;2.40;;;;;16.50;100734.00;;;;4855584;29;20566;-84
2021/10/10 08:54:56;;;;;;;6.10;2.50;;;;;16.50;100733.00;;;;4856864;29;20743;-81
2021/10/10 08:57:29;;;;;;;10.05;2.70;;;;;16.50;100754.00;;;;4856855;29;20399;-80
2021/10/10 09:00:07;;;;;;;9.77;2.70;;;;;16.60;100737.00;;;;4856511;29;20049;-81
2021/10/10 09:02:39;;;;;;;14.48;2.28;;;;;16.60;100750.00;;;;4856913;29;20057;-83
2021/10/10 09:05:10;;;;;;;11.82;2.72;;;;;16.60;100753.00;;;;4855736;29;20425;-81
2021/10/10 09:07:45;;;;;;;10.77;2.50;;;;;16.60;100735.00;;;;4856606;29;20529;-81
2021/10/10 09:10:31;;;;;;;6.75;2.45;;;;;16.60;100740.00;;;;4857215;29;20056;-80
2021/10/10 09:13:09;;;;;;;9.85;2.50;;;;;16.70;100757.00;;;;4856077;29;20053;-80
2021/10/10 09:15:47;;;;;;;6.65;2.22;;;;;16.70;100783.00;;;;4856282;29;20057;-83
2021/10/10 09:18:17;;;;;;;18.10;3.88;;;;;16.80;100802.00;;;;4855417;29;20049;-83
2021/10/10 09:20:48;;;;;;;9.00;2.60;;;;;16.80;100803.00;;;;4856899;29;20049;-84
2021/10/10 09:23:17;;;;;;;6.75;2.33;;;;;16.80;100804.00;;;;4856085;29;20534;-84
2021/10/10 09:25:59;;;;;;;14.27;3.20;;;;;16.90;100809.00;;;;4856545;29;20057;-81
2021/10/10 09:28:32;;;;;;;9.23;2.15;;;;;16.90;100824.00;;;;4857741;29;20053;-85
2021/10/10 09:31:05;;;;;;;7.38;2.05;;;;;16.90;100816.00;;;;4856931;29;20101;-83
2021/10/10 09:33:49;;;;;;;11.30;2.58;;;;;16.90;100822.00;;;;4856730;29;20057;-81
2021/10/10 09:36:27;;;;;;;6.68;2.45;;;;;16.90;100813.00;;;;4856642;29;20046;-83
2021/10/10 09:39:03;;;;;;;4.05;1.27;;;;;17.00;100826.00;;;;4856778;29;20146;-80
2021/10/10 09:41:39;;;;;;;4.45;1.73;;;;;17.10;100821.00;;;;4857771;29;20554;-82
2021/10/10 09:44:14;;;;;;;7.00;2.13;;;;;17.10;100836.00;;;;4857825;29;20522;-85
2021/10/10 09:46:49;;;;;;;6.35;1.70;;;;;17.10;100838.00;;;;4855677;29;20534;-82
2021/10/10 09:49:32;;;;;;;6.53;1.70;;;;;17.10;100851.00;;;;4856587;29;20053;-82
2021/10/10 09:52:15;;;;;;;8.68;1.52;;;;;17.10;100861.00;;;;4857833;29;20132;-81
2021/10/10 09:54:50;;;;;;;7.82;2.20;;;;;17.20;100855.00;;;;4856833;29;20076;-82
2021/10/10 09:57:24;;;;;;;8.55;2.67;;;;;17.20;100852.00;;;;4855311;29;20056;-83
2021/10/10 09:59:56;;;;;;;11.13;2.13;;;;;17.20;100844.00;;;;4856057;29;20096;-80
2021/10/10 10:02:40;;;;;;;7.20;2.20;;;;;17.20;100875.00;;;;4856376;29;20057;-80
2021/10/10 10:05:26;;;;;;;8.52;1.98;;;;;17.20;100866.00;;;;4856236;29;20052;-82
2021/10/10 10:07:58;;;;;;;4.72;1.85;;;;;17.20;100853.00;;;;4856635;29;20066;-81
2021/10/10 10:10:30;;;;;;;8.13;2.10;;;;;17.30;100864.00;;;;4855853;29;20557;-81
2021/10/10 10:13:02;;;;;;;4.95;2.00;;;;;17.40;100855.00;;;;4856707;29;20056;-84
2021/10/10 10:15:35;;;;;;;9.23;2.38;;;;;17.40;100866.00;;;;4856361;29;20433;-81
2021/10/10 10:18:06;;;;;;;8.95;2.00;;;;;17.50;100849.00;;;;4855764;29;20050;-82
2021/10/10 10:20:36;;;;;;;;;;;;;17.70;100862.00;;;;4855640;29;20053;-80
2021/10/10 10:23:06;;;;;;;24.05;2.90;;;;;17.70;100848.00;;;;4855659;29;19932;-83
2021/10/10 10:25:39;;;;;;;4.05;1.80;;;;;17.80;100833.00;;;;4856004;29;20072;-83
2021/10/10 10:28:11;;;;;;;6.13;1.95;;;;;18.00;100831.00;;;;4856240;29;20120;-85
2021/10/10 10:30:41;;;;;;;6.30;1.80;;;;;18.30;100817.00;;;;4855348;29;20428;-81
2021/10/10 10:33:14;;;;;;;4.95;1.88;;;;;18.50;100803.00;;;;4855443;29;20053;-81
2021/10/10 10:35:48;;;;;;;9.98;1.58;;;;;18.80;100796.00;;;;4855586;29;20073;-84
2021/10/10 10:38:18;;;;;;;3.90;1.67;;;;;20.00;100754.00;;;;4855191;29;20077;-83
2021/10/10 10:40:48;;;;;;;5.32;1.90;;;;;21.70;100678.00;;;;4854132;29;20100;-81
2021/10/10 10:43:35;;;;;;;4.47;1.60;;;;;23.40;100767.00;;;;4853812;29;20057;-82
2021/10/10 10:46:08;;;;;;;5.55;1.70;;;;;21.70;100728.00;;;;4854362;29;20068;-82
2021/10/10 10:48:38;;;;;;;5.60;1.60;;;;;22.00;100708.00;;;;4853687;29;20104;-82
2021/10/10 10:51:27;;;;;;;3.63;1.50;;;;;25.50;100602.00;;;;4855845;29;20429;-83
2021/10/10 10:54:36;;;;;;;4.30;1.27;;;;;28.30;100613.00;;;;4856097;29;20042;-82
2021/10/10 10:57:30;;;;;;;7.75;1.33;;;;;27.20;100553.00;;;;4855195;29;20068;-82
2021/10/10 11:00:10;;;;;;;2.60;1.10;;;;;25.90;100806.00;;;;4855278;29;20045;-81
2021/10/10 11:03:01;;;;;;;4.65;1.30;;;;;22.70;100801.00;;;;4855148;29;20133;-82
2021/10/10 11:05:36;;;;;;;4.05;1.35;;;;;25.20;100633.00;;;;4863592;29;20053;-82
2021/10/10 11:08:31;;;;;;;9.10;2.20;;;;;27.10;100554.00;;;;4865832;29;20045;-84
2021/10/10 11:11:09;;;;;;;4.32;1.60;;;;;27.40;100548.00;;;;4856710;29;20061;-84
2021/10/10 11:14:01;;;;;;;6.50;2.03;;;;;27.40;100601.00;;;;4856226;29;20057;-84
2021/10/10 11:16:34;;;;;;;2.15;1.20;;;;;27.40;100576.00;;;;4853791;29;20537;-83
2021/10/10 11:19:11;;;;;;;2.47;1.02;;;;;28.70;100592.00;;;;4855659;29;20073;-85
2021/10/10 11:21:46;;;;;;;2.80;1.42;;;;;27.40;100618.00;;;;4855468;29;20046;-83
2021/10/10 11:24:21;;;;;;;2.40;0.90;;;;;26.00;100696.00;;;;4855189;29;20049;-84
2021/10/10 11:26:52;;;;;;;3.40;1.10;;;;;24.80;100655.00;;;;4855835;29;20050;-84
2021/10/10 11:29:22;;;;;;;1.65;1.00;;;;;24.20;100713.00;;;;4854813;29;20052;-81
2021/10/10 11:31:53;;;;;;;3.72;1.00;;;;;23.70;100741.00;;;;4854772;29;20069;-84
2021/10/10 11:34:25;;;;;;;3.00;1.17;;;;;23.70;100757.00;;;;4855834;29;20045;-81
2021/10/10 11:36:57;;;;;;;2.13;1.10;;;;;26.10;100685.00;;;;4855991;29;20098;-82
2021/10/10 11:39:31;;;;;;;3.72;1.20;;;;;28.20;100632.00;;;;4854650;29;20053;-81
2021/10/10 11:42:03;;;;;;;3.90;1.02;;;;;29.00;100617.00;;;;4854392;29;20049;-84
2021/10/10 11:44:45;;;;;;;3.35;1.17;;;;;29.30;100602.00;;;;4855201;29;20071;-81
2021/10/10 11:47:25;;;;;;;4.70;1.17;;;;;28.60;100589.00;;;;4855363;29;20435;-84
2021/10/10 11:50:00;;;;;;;3.00;1.10;;;;;28.20;100598.00;;;;4854368;29;20048;-82
2021/10/10 11:52:47;;;;;;;5.75;1.25;;;;;26.80;100742.00;;;;4855513;29;20156;-85
2021/10/10 11:55:26;;;;;;;2.97;1.17;;;;;26.20;100619.00;;;;4855436;29;20163;-81
2021/10/10 11:58:01;;;;;;;1.58;1.00;;;;;28.60;100593.00;;;;4854953;29;20061;-80
2021/10/10 12:00:36;;;;;;;2.00;1.23;;;;;28.70;100629.00;;;;4855167;29;20416;-84
2021/10/10 12:03:20;;;;;;;1.33;0.90;;;;;27.30;100719.00;;;;4854917;29;20049;-82
2021/10/10 12:05:50;;;;;;;3.92;1.20;;;;;26.20;100757.00;;;;4854035;29;20068;-83
2021/10/10 12:08:22;;;;;;;1.65;1.00;;;;;24.60;100770.00;;;;4853341;29;20053;-83
2021/10/10 12:10:53;;;;;;;2.85;1.10;;;;;24.20;100760.00;;;;4854734;29;20049;-82
2021/10/10 12:13:24;;;;;;;1.85;0.93;;;;;24.10;100760.00;;;;4854666;29;20049;-81
2021/10/10 12:16:02;;;;;;;1.20;1.02;;;;;24.50;100725.00;;;;4852801;29;20057;-83
2021/10/10 12:18:34;;;;;;;1.63;1.10;;;;;24.50;100737.00;;;;4852531;29;20045;-82
2021/10/10 12:21:26;;;;;;;2.17;1.15;;;;;24.70;100736.00;;;;4852368;29;20064;-83
2021/10/10 12:24:06;;;;;;;2.90;1.20;;;;;25.10;100720.00;;;;4851983;29;20433;-78
2021/10/10 12:26:47;;;;;;;4.03;1.40;;;;;25.50;100710.00;;;;4854077;29;20053;-80
2021/10/10 12:29:29;;;;;;;1.77;1.17;;;;;25.30;100704.00;;;;4853655;29;20533;-81
2021/10/10 12:32:28;;;;;;;2.40;1.20;;;;;25.50;100711.00;;;;4854849;29;20106;-80
2021/10/10 12:35:15;;;;;;;3.70;1.60;;;;;25.70;100688.00;;;;4854465;29;20529;-82
2021/10/10 12:38:03;;;;;;;1.45;1.15;;;;;26.80;100637.00;;;;4854189;29;20098;-80